Observation data for Friona on 09/12/2017      Previous  Date       Current Mesonet Observations  Soil Data  Daily Summary Page  Observations in Plain Language
KFAS 120500Z 20007KT 17/12 A3019 RMK A01 T01670115  RH  072%=      5-min Rain = 0
KFAS 120505Z 20006KT 17/11 A3019 RMK A01 T01670113  RH  072%=      5-min Rain = 0
KFAS 120510Z 19005KT 17/11 A3018 RMK A01 T01670112  RH  071%=      5-min Rain = 0
KFAS 120515Z 19003KT 17/11 A3019 RMK A01 T01660112  RH  072%=      5-min Rain = 0
KFAS 120520Z 20000KT 16/11 A3019 RMK A01 T01630112  RH  073%=      5-min Rain = 0
KFAS 120525Z 25001KT 16/11 A3019 RMK A01 T01640112  RH  073%=      5-min Rain = 0
KFAS 120530Z 25002KT 17/11 A3018 RMK A01 T01670113  RH  072%=      5-min Rain = 0
KFAS 120535Z 25004KT 17/11 A3018 RMK A01 T01680111  RH  070%=      5-min Rain = 0
KFAS 120540Z 25004KT 17/11 A3018 RMK A01 T01690111  RH  070%=      5-min Rain = 0
KFAS 120545Z 28003KT 17/11 A3018 RMK A01 T01670109  RH  070%=      5-min Rain = 0
KFAS 120550Z 27003KT 16/11 A3018 RMK A01 T01570107  RH  073%=      5-min Rain = 0
KFAS 120555Z 27003KT 15/11 A3018 RMK A01 T01530107  RH  075%=      5-min Rain = 0
KFAS 120600Z 26003KT 15/11 A3018 RMK A01 T01530108  RH  076%=      5-min Rain = 0
KFAS 120605Z 28003KT 15/11 A3018 RMK A01 T01510107  RH  076%=      5-min Rain = 0
KFAS 120610Z 28003KT 15/11 A3018 RMK A01 T01490106  RH  077%=      5-min Rain = 0
KFAS 120615Z 27003KT 15/11 A3018 RMK A01 T01480106  RH  077%=      5-min Rain = 0
KFAS 120620Z 28003KT 15/11 A3018 RMK A01 T01470106  RH  078%=      5-min Rain = 0
KFAS 120625Z 28004KT 15/11 A3018 RMK A01 T01470106  RH  078%=      5-min Rain = 0
KFAS 120630Z 27005KT 15/11 A3018 RMK A01 T01450106  RH  079%=      5-min Rain = 0
KFAS 120635Z 27005KT 14/11 A3018 RMK A01 T01430107  RH  081%=      5-min Rain = 0
KFAS 120640Z 27004KT 14/11 A3018 RMK A01 T01430107  RH  080%=      5-min Rain = 0
KFAS 120645Z 28003KT 14/11 A3018 RMK A01 T01410105  RH  080%=      5-min Rain = 0
KFAS 120650Z 28004KT 14/11 A3018 RMK A01 T01410105  RH  080%=      5-min Rain = 0
KFAS 120655Z 28004KT 14/10 A3017 RMK A01 T01380102  RH  080%=      5-min Rain = 0
KFAS 120700Z 28003KT 14/10 A3017 RMK A01 T01360103  RH  082%=      5-min Rain = 0
KFAS 120705Z 28002KT 14/10 A3018 RMK A01 T01370104  RH  082%=      5-min Rain = 0
KFAS 120710Z 06002KT 14/10 A3017 RMK A01 T01360101  RH  081%=      5-min Rain = 0
KFAS 120715Z 30003KT 14/11 A3017 RMK A01 T01400105  RH  081%=      5-min Rain = 0
KFAS 120720Z 32002KT 14/11 A3017 RMK A01 T01410106  RH  081%=      5-min Rain = 0
KFAS 120725Z 35001KT 14/11 A3017 RMK A01 T01390105  RH  081%=      5-min Rain = 0
KFAS 120730Z 32001KT 14/11 A3017 RMK A01 T01370105  RH  082%=      5-min Rain = 0
KFAS 120735Z 04001KT 14/10 A3017 RMK A01 T01360099  RH  079%=      5-min Rain = 0
KFAS 120740Z 11001KT 14/09 A3017 RMK A01 T01350093  RH  077%=      5-min Rain = 0
KFAS 120745Z 28002KT 14/10 A3017 RMK A01 T01360095  RH  077%=      5-min Rain = 0
KFAS 120750Z 28002KT 14/10 A3017 RMK A01 T01380097  RH  077%=      5-min Rain = 0
KFAS 120755Z 26002KT 13/10 A3016 RMK A01 T01320096  RH  080%=      5-min Rain = 0
KFAS 120800Z 24002KT 13/10 A3016 RMK A01 T01290102  RH  085%=      5-min Rain = 0
KFAS 120805Z 25003KT 13/11 A3016 RMK A01 T01320106  RH  086%=      5-min Rain = 0
KFAS 120810Z 23002KT 13/10 A3016 RMK A01 T01280101  RH  085%=      5-min Rain = 0
KFAS 120815Z 13002KT 13/09 A3016 RMK A01 T01250094  RH  083%=      5-min Rain = 0
KFAS 120820Z 18002KT 13/09 A3016 RMK A01 T01300093  RH  080%=      5-min Rain = 0
KFAS 120825Z 18001KT 13/09 A3016 RMK A01 T01300088  RH  077%=      5-min Rain = 0
KFAS 120830Z 18000KT 13/09 A3016 RMK A01 T01300091  RH  078%=      5-min Rain = 0
KFAS 120835Z 19001KT 13/10 A3015 RMK A01 T01300098  RH  082%=      5-min Rain = 0
KFAS 120840Z 21002KT 13/10 A3015 RMK A01 T01300100  RH  083%=      5-min Rain = 0
KFAS 120845Z 22003KT 13/10 A3015 RMK A01 T01280100  RH  085%=      5-min Rain = 0
KFAS 120850Z 21002KT 13/10 A3015 RMK A01 T01250102  RH  087%=      5-min Rain = 0
KFAS 120855Z 18002KT 13/10 A3015 RMK A01 T01260103  RH  087%=      5-min Rain = 0
KFAS 120900Z 21002KT 13/10 A3015 RMK A01 T01250103  RH  088%=      5-min Rain = 0
KFAS 120905Z 22003KT 13/11 A3015 RMK A01 T01260105  RH  088%=      5-min Rain = 0
KFAS 120910Z 23003KT 13/10 A3014 RMK A01 T01250104  RH  089%=      5-min Rain = 0
KFAS 120915Z 23003KT 12/10 A3014 RMK A01 T01230102  RH  089%=      5-min Rain = 0
KFAS 120920Z 23003KT 12/10 A3014 RMK A01 T01210103  RH  090%=      5-min Rain = 0
KFAS 120925Z 23002KT 12/10 A3014 RMK A01 T01200101  RH  090%=      5-min Rain = 0
KFAS 120930Z 21002KT 12/10 A3014 RMK A01 T01180099  RH  089%=      5-min Rain = 0
KFAS 120935Z 18002KT 12/10 A3014 RMK A01 T01190099  RH  089%=      5-min Rain = 0
KFAS 120940Z 18002KT 12/10 A3014 RMK A01 T01210097  RH  087%=      5-min Rain = 0
KFAS 120945Z 19001KT 12/10 A3014 RMK A01 T01210096  RH  086%=      5-min Rain = 0
KFAS 120950Z 22001KT 12/10 A3014 RMK A01 T01210096  RH  086%=      5-min Rain = 0
KFAS 120955Z 23002KT 12/10 A3014 RMK A01 T01220098  RH  087%=      5-min Rain = 0
KFAS 121000Z 22001KT 12/10 A3014 RMK A01 T01240098  RH  086%=      5-min Rain = 0
KFAS 121005Z 19001KT 12/10 A3014 RMK A01 T01230096  RH  085%=      5-min Rain = 0
KFAS 121010Z 20001KT 12/10 A3014 RMK A01 T01220096  RH  085%=      5-min Rain = 0
KFAS 121015Z 25002KT 12/10 A3014 RMK A01 T01220097  RH  086%=      5-min Rain = 0
KFAS 121020Z 26003KT 12/10 A3013 RMK A01 T01220097  RH  086%=      5-min Rain = 0
KFAS 121025Z 27004KT 12/10 A3013 RMK A01 T01240100  RH  087%=      5-min Rain = 0
KFAS 121030Z 26005KT 13/10 A3013 RMK A01 T01250099  RH  086%=      5-min Rain = 0
KFAS 121035Z 27005KT 12/10 A3013 RMK A01 T01230097  RH  085%=      5-min Rain = 0
KFAS 121040Z 28004KT 12/09 A3013 RMK A01 T01200093  RH  085%=      5-min Rain = 0
KFAS 121045Z 29003KT 11/09 A3013 RMK A01 T01130089  RH  086%=      5-min Rain = 0
KFAS 121050Z 30004KT 11/09 A3014 RMK A01 T01110089  RH  088%=      5-min Rain = 0
KFAS 121055Z 31004KT 11/09 A3014 RMK A01 T01110092  RH  089%=      5-min Rain = 0
KFAS 121100Z 31004KT 11/09 A3014 RMK A01 T01100091  RH  089%=      5-min Rain = 0
KFAS 121105Z 30005KT 11/09 A3014 RMK A01 T01080089  RH  089%=      5-min Rain = 0
KFAS 121110Z 30006KT 11/09 A3014 RMK A01 T01070088  RH  089%=      5-min Rain = 0
KFAS 121115Z 29006KT 11/09 A3014 RMK A01 T01060089  RH  090%=      5-min Rain = 0
KFAS 121120Z 29004KT 11/09 A3014 RMK A01 T01070090  RH  091%=      5-min Rain = 0
KFAS 121125Z 29004KT 11/09 A3014 RMK A01 T01070091  RH  091%=      5-min Rain = 0
KFAS 121130Z 28003KT 11/09 A3013 RMK A01 T01050089  RH  091%=      5-min Rain = 0
KFAS 121135Z 26004KT 10/09 A3013 RMK A01 T01030088  RH  092%=      5-min Rain = 0
KFAS 121140Z 27004KT 10/09 A3013 RMK A01 T01010087  RH  092%=      5-min Rain = 0
KFAS 121145Z 27004KT 10/09 A3013 RMK A01 T01010087  RH  093%=      5-min Rain = 0
KFAS 121150Z 25005KT 10/09 A3013 RMK A01 T01000087  RH  093%=      5-min Rain = 0
KFAS 121155Z 24004KT 10/09 A3013 RMK A01 T01010089  RH  094%=      5-min Rain = 0
KFAS 121200Z 24005KT 11/09 A3013 RMK A01 T01050093  RH  094%=      5-min Rain = 0
KFAS 121205Z 24005KT 11/09 A3013 RMK A01 T01080094  RH  093%=      5-min Rain = 0
KFAS 121210Z 25005KT 11/09 A3013 RMK A01 T01070091  RH  091%=      5-min Rain = 0
KFAS 121215Z 25006KT 11/09 A3013 RMK A01 T01060090  RH  091%=      5-min Rain = 0
KFAS 121220Z 25005KT 11/09 A3013 RMK A01 T01060090  RH  091%=      5-min Rain = 0
KFAS 121225Z 26004KT 11/09 A3013 RMK A01 T01060090  RH  091%=      5-min Rain = 0
KFAS 121230Z 26004KT 11/09 A3012 RMK A01 T01080092  RH  091%=      5-min Rain = 0
KFAS 121235Z 26004KT 11/09 A3013 RMK A01 T01100093  RH  091%=      5-min Rain = 0
KFAS 121240Z 27004KT 11/09 A3012 RMK A01 T01110093  RH  090%=      5-min Rain = 0
KFAS 121245Z 26004KT 11/09 A3012 RMK A01 T01120093  RH  089%=      5-min Rain = 0
KFAS 121250Z 26005KT 11/09 A3012 RMK A01 T01120092  RH  089%=      5-min Rain = 0
KFAS 121255Z 26006KT 11/09 A3013 RMK A01 T01130093  RH  089%=      5-min Rain = 0
KFAS 121300Z 26006KT 11/09 A3012 RMK A01 T01130093  RH  089%=      5-min Rain = 0
KFAS 121305Z 26007KT 11/10 A3012 RMK A01 T01140095  RH  089%=      5-min Rain = 0
KFAS 121310Z 27006KT 12/10 A3012 RMK A01 T01160096  RH  089%=      5-min Rain = 0
KFAS 121315Z 27005KT 12/10 A3012 RMK A01 T01200099  RH  089%=      5-min Rain = 0
KFAS 121320Z 28004KT 12/10 A3012 RMK A01 T01240102  RH  088%=      5-min Rain = 0
KFAS 121325Z 28002KT 13/11 A3012 RMK A01 T01280105  RH  087%=      5-min Rain = 0
KFAS 121330Z 26002KT 13/11 A3012 RMK A01 T01340109  RH  086%=      5-min Rain = 0
KFAS 121335Z 27003KT 14/11 A3013 RMK A01 T01400112  RH  085%=      5-min Rain = 0
KFAS 121340Z 27003KT 15/11 A3013 RMK A01 T01460114  RH  083%=      5-min Rain = 0
KFAS 121345Z 27002KT 15/12 A3013 RMK A01 T01520116  RH  080%=      5-min Rain = 0
KFAS 121350Z 27002KT 16/12 A3013 RMK A01 T01590116  RH  077%=      5-min Rain = 0
KFAS 121355Z 27002KT 17/12 A3012 RMK A01 T01650116  RH  074%=      5-min Rain = 0
KFAS 121400Z 26002KT 17/12 A3012 RMK A01 T01720119  RH  072%=      5-min Rain = 0
KFAS 121405Z 29003KT 18/12 A3013 RMK A01 T01790120  RH  070%=      5-min Rain = 0
KFAS 121410Z 29003KT 19/12 A3013 RMK A01 T01870123  RH  068%=      5-min Rain = 0
KFAS 121415Z 29003KT 19/12 A3012 RMK A01 T01940123  RH  065%=      5-min Rain = 0
KFAS 121420Z 28003KT 20/12 A3012 RMK A01 T02000124  RH  063%=      5-min Rain = 0
KFAS 121425Z 29003KT 21/12 A3013 RMK A01 T02090123  RH  059%=      5-min Rain = 0
KFAS 121430Z 28003KT 22/12 A3012 RMK A01 T02160123  RH  057%=      5-min Rain = 0
KFAS 121435Z 27003KT 22/12 A3012 RMK A01 T02230122  RH  054%=      5-min Rain = 0
KFAS 121440Z 27003KT 23/12 A3012 RMK A01 T02290122  RH  052%=      5-min Rain = 0
KFAS 121445Z 27003KT 24/12 A3012 RMK A01 T02370121  RH  049%=      5-min Rain = 0
KFAS 121450Z 28004KT 24/12 A3012 RMK A01 T02420120  RH  047%=      5-min Rain = 0
KFAS 121455Z 28004KT 25/12 A3012 RMK A01 T02490118  RH  045%=      5-min Rain = 0
KFAS 121500Z 27003KT 25/12 A3012 RMK A01 T02510118  RH  044%=      5-min Rain = 0
KFAS 121505Z 27004KT 25/12 A3012 RMK A01 T02540121  RH  044%=      5-min Rain = 0
KFAS 121510Z 27004KT 26/12 A3012 RMK A01 T02580123  RH  044%=      5-min Rain = 0
KFAS 121515Z 27005KT 26/13 A3013 RMK A01 T02590125  RH  044%=      5-min Rain = 0
KFAS 121520Z 28005KT 26/12 A3013 RMK A01 T02600120  RH  043%=      5-min Rain = 0
KFAS 121525Z 30005KT 26/10 A3013 RMK A01 T02610096  RH  036%=      5-min Rain = 0
KFAS 121530Z 29006KT 26/08 A3013 RMK A01 T02580081  RH  033%=      5-min Rain = 0
KFAS 121535Z 29005KT 26/09 A3013 RMK A01 T02590086  RH  034%=      5-min Rain = 0
KFAS 121540Z 32005KT 26/09 A3013 RMK A01 T02600086  RH  034%=      5-min Rain = 0
KFAS 121545Z 33005KT 26/09 A3013 RMK A01 T02600087  RH  034%=      5-min Rain = 0
KFAS 121550Z 31006KT 26/08 A3013 RMK A01 T02600080  RH  032%=      5-min Rain = 0
KFAS 121555Z 30006KT 26/08 A3013 RMK A01 T02600078  RH  032%=      5-min Rain = 0
KFAS 121600Z 31006KT 26/08 A3013 RMK A01 T02570077  RH  032%=      5-min Rain = 0
KFAS 121605Z 32005KT 26/08 A3013 RMK A01 T02570083  RH  034%=      5-min Rain = 0
KFAS 121610Z 32004KT 26/09 A3013 RMK A01 T02580091  RH  035%=      5-min Rain = 0
KFAS 121615Z 33004KT 26/09 A3013 RMK A01 T02600090  RH  035%=      5-min Rain = 0
KFAS 121620Z 31003KT 26/09 A3013 RMK A01 T02580085  RH  034%=      5-min Rain = 0
KFAS 121625Z 28002KT 26/08 A3013 RMK A01 T02580084  RH  034%=      5-min Rain = 0
KFAS 121630Z 28003KT 26/09 A3013 RMK A01 T02590087  RH  034%=      5-min Rain = 0
KFAS 121635Z 35001KT 26/09 A3013 RMK A01 T02600088  RH  034%=      5-min Rain = 0
KFAS 121640Z 00004KT 26/09 A3013 RMK A01 T02620088  RH  034%=      5-min Rain = 0
KFAS 121645Z 01003KT 26/09 A3013 RMK A01 T02610092  RH  035%=      5-min Rain = 0
KFAS 121650Z 35002KT 26/09 A3013 RMK A01 T02610092  RH  035%=      5-min Rain = 0
KFAS 121655Z 33003KT 26/10 A3013 RMK A01 T02610099  RH  037%=      5-min Rain = 0
KFAS 121700Z 32004KT 26/10 A3012 RMK A01 T02610102  RH  037%=      5-min Rain = 0
KFAS 121705Z 33004KT 26/11 A3012 RMK A01 T02620107  RH  039%=      5-min Rain = 0
KFAS 121710Z 33007KT 26/10 A3012 RMK A01 T02610101  RH  037%=      5-min Rain = 0
KFAS 121715Z 33006KT 26/10 A3012 RMK A01 T02610099  RH  037%=      5-min Rain = 0
KFAS 121720Z 32005KT 26/10 A3012 RMK A01 T02630095  RH  035%=      5-min Rain = 0
KFAS 121725Z 34004KT 27/10 A3012 RMK A01 T02690096  RH  034%=      5-min Rain = 0
KFAS 121730Z 31004KT 28/09 A3012 RMK A01 T02750093  RH  032%=      5-min Rain = 0
KFAS 121735Z 33004KT 28/09 A3012 RMK A01 T02770086  RH  030%=      5-min Rain = 0
KFAS 121740Z 33005KT 28/09 A3012 RMK A01 T02750086  RH  031%=      5-min Rain = 0
KFAS 121745Z 33005KT 27/09 A3011 RMK A01 T02720087  RH  032%=      5-min Rain = 0
KFAS 121750Z 33005KT 27/09 A3011 RMK A01 T02710085  RH  032%=      5-min Rain = 0
KFAS 121755Z 34005KT 27/08 A3011 RMK A01 T02700084  RH  031%=      5-min Rain = 0
KFAS 121800Z 34004KT 27/08 A3011 RMK A01 T02710081  RH  030%=      5-min Rain = 0
KFAS 121805Z 35005KT 27/08 A3011 RMK A01 T02720081  RH  031%=      5-min Rain = 0
KFAS 121810Z 36004KT 27/08 A3011 RMK A01 T02720078  RH  030%=      5-min Rain = 0
KFAS 121815Z 35004KT 27/08 A301 RMK A01 T02740076  RH  029%=      5-min Rain = 0
KFAS 121820Z 35003KT 28/08 A301 RMK A01 T02830082  RH  029%=      5-min Rain = 0
KFAS 121825Z 32007KT 29/08 A301 RMK A01 T02890083  RH  028%=      5-min Rain = 0
KFAS 121830Z 32006KT 29/08 A301 RMK A01 T02920083  RH  028%=      5-min Rain = 0
KFAS 121835Z 33007KT 29/09 A3009 RMK A01 T02920085  RH  028%=      5-min Rain = 0
KFAS 121840Z 32006KT 29/08 A3009 RMK A01 T02880083  RH  028%=      5-min Rain = 0
KFAS 121845Z 35006KT 29/09 A3009 RMK A01 T02870086  RH  029%=      5-min Rain = 0
KFAS 121850Z 35003KT 29/09 A3009 RMK A01 T02870085  RH  029%=      5-min Rain = 0
KFAS 121855Z 35006KT 29/09 A3008 RMK A01 T02890087  RH  029%=      5-min Rain = 0
KFAS 121900Z 33005KT 29/09 A3008 RMK A01 T02890087  RH  029%=      5-min Rain = 0
KFAS 121905Z 33004KT 29/08 A3008 RMK A01 T02890080  RH  027%=      5-min Rain = 0
KFAS 121910Z 33002KT 29/09 A3008 RMK A01 T02910088  RH  029%=      5-min Rain = 0
KFAS 121915Z 33002KT 29/08 A3007 RMK A01 T02940082  RH  027%=      5-min Rain = 0
KFAS 121920Z 31003KT 30/08 A3007 RMK A01 T02970081  RH  026%=      5-min Rain = 0
KFAS 121925Z 35003KT 30/09 A3007 RMK A01 T03000089  RH  027%=      5-min Rain = 0
KFAS 121930Z 02003KT 30/09 A3007 RMK A01 T03040089  RH  027%=      5-min Rain = 0
KFAS 121935Z 28003KT 31/09 A3006 RMK A01 T03060089  RH  026%=      5-min Rain = 0
KFAS 121940Z 27004KT 30/09 A3006 RMK A01 T03040091  RH  027%=      5-min Rain = 0
KFAS 121945Z 30004KT 30/09 A3006 RMK A01 T02970087  RH  027%=      5-min Rain = 0
KFAS 121950Z 23001KT 30/09 A3006 RMK A01 T02980089  RH  028%=      5-min Rain = 0
KFAS 121955Z 24003KT 31/10 A3005 RMK A01 T03080095  RH  027%=      5-min Rain = 0
KFAS 122000Z 23003KT 31/09 A3005 RMK A01 T03120094  RH  026%=      5-min Rain = 0
KFAS 122005Z 26003KT 32/10 A3005 RMK A01 T03150098  RH  027%=      5-min Rain = 0
KFAS 122010Z 34004KT 31/10 A3005 RMK A01 T03140096  RH  026%=      5-min Rain = 0
KFAS 122015Z 01002KT 31/09 A3004 RMK A01 T03070088  RH  026%=      5-min Rain = 0
KFAS 122020Z 24004KT 31/10 A3004 RMK A01 T03080095  RH  027%=      5-min Rain = 0
KFAS 122025Z 23005KT 31/09 A3004 RMK A01 T03090091  RH  026%=      5-min Rain = 0
KFAS 122030Z 24004KT 31/09 A3004 RMK A01 T03130087  RH  025%=      5-min Rain = 0
KFAS 122035Z 26004KT 31/09 A3003 RMK A01 T03130086  RH  025%=      5-min Rain = 0
KFAS 122040Z 26002KT 31/08 A3003 RMK A01 T03120080  RH  024%=      5-min Rain = 0
KFAS 122045Z 24002KT 31/08 A3003 RMK A01 T03130077  RH  023%=      5-min Rain = 0
KFAS 122050Z 21002G7KT 32/08 A3002 RMK A01 T03190080  RH  023%=      5-min Rain = 0
KFAS 122055Z 22003KT 32/08 A3002 RMK A01 T03190084  RH  024%=      5-min Rain = 0
KFAS 122100Z 18003KT 32/08 A3002 RMK A01 T03170084  RH  024%=      5-min Rain = 0
KFAS 122105Z 16002KT 32/08 A3002 RMK A01 T03160078  RH  023%=      5-min Rain = 0
KFAS 122110Z 23003KT 32/09 A3002 RMK A01 T03170085  RH  024%=      5-min Rain = 0
KFAS 122115Z 25002KT 32/08 A3001 RMK A01 T03190077  RH  023%=      5-min Rain = 0
KFAS 122120Z 25002KT 32/08 A3001 RMK A01 T03200080  RH  023%=      5-min Rain = 0
KFAS 122125Z 26002KT 32/07 A3001 RMK A01 T03200072  RH  022%=      5-min Rain = 0
KFAS 122130Z 24004KT 32/07 A3001 RMK A01 T03200070  RH  021%=      5-min Rain = 0
KFAS 122135Z 24002KT 32/07 A30 RMK A01 T03190067  RH  021%=      5-min Rain = 0
KFAS 122140Z 26004KT 32/08 A30 RMK A01 T03220077  RH  022%=      5-min Rain = 0
KFAS 122145Z 25004KT 32/07 A30 RMK A01 T03200067  RH  021%=      5-min Rain = 0
KFAS 122150Z 23002KT 32/07 A30 RMK A01 T03190069  RH  021%=      5-min Rain = 0
KFAS 122155Z 23004KT 32/07 A30 RMK A01 T03200074  RH  022%=      5-min Rain = 0
KFAS 122200Z 23004KT 32/08 A2999 RMK A01 T03190076  RH  022%=      5-min Rain = 0
KFAS 122205Z 22007KT 32/08 A2999 RMK A01 T03160075  RH  023%=      5-min Rain = 0
KFAS 122210Z 21005KT 32/08 A2999 RMK A01 T03160076  RH  023%=      5-min Rain = 0
KFAS 122215Z 20002KT 32/08 A2999 RMK A01 T03170075  RH  023%=      5-min Rain = 0
KFAS 122220Z 19003KT 32/08 A2999 RMK A01 T03210075  RH  022%=      5-min Rain = 0
KFAS 122225Z 21004KT 32/07 A2999 RMK A01 T03180072  RH  022%=      5-min Rain = 0
KFAS 122230Z 22003KT 32/07 A2999 RMK A01 T03170068  RH  022%=      5-min Rain = 0
KFAS 122235Z 14002KT 32/07 A2999 RMK A01 T03180069  RH  021%=      5-min Rain = 0
KFAS 122240Z 06002KT 32/07 A2999 RMK A01 T03160069  RH  022%=      5-min Rain = 0
KFAS 122245Z 08001KT 32/07 A2999 RMK A01 T03160066  RH  021%=      5-min Rain = 0
KFAS 122250Z 22001KT 32/07 A2999 RMK A01 T03230068  RH  021%=      5-min Rain = 0
KFAS 122255Z 16004KT 32/07 A2999 RMK A01 T03230070  RH  021%=      5-min Rain = 0
KFAS 122300Z 17003G8KT 32/07 A2998 RMK A01 T03200070  RH  021%=      5-min Rain = 0
KFAS 122305Z 16006KT 32/08 A2998 RMK A01 T03160077  RH  023%=      5-min Rain = 0
KFAS 122310Z 20006KT 31/08 A2998 RMK A01 T03110077  RH  024%=      5-min Rain = 0
KFAS 122315Z 19005KT 31/08 A2998 RMK A01 T03090076  RH  024%=      5-min Rain = 0
KFAS 122320Z 19006KT 31/08 A2998 RMK A01 T03080081  RH  025%=      5-min Rain = 0
KFAS 122325Z 19007KT 31/08 A2998 RMK A01 T03060077  RH  024%=      5-min Rain = 0
KFAS 122330Z 18006KT 31/08 A2998 RMK A01 T03050081  RH  025%=      5-min Rain = 0
KFAS 122335Z 18005KT 31/08 A2998 RMK A01 T03050079  RH  025%=      5-min Rain = 0
KFAS 122340Z 18006KT 30/08 A2998 RMK A01 T03040077  RH  025%=      5-min Rain = 0
KFAS 122345Z 18005KT 30/08 A2998 RMK A01 T03030081  RH  025%=      5-min Rain = 0
KFAS 122350Z 17005KT 30/08 A2998 RMK A01 T03010084  RH  026%=      5-min Rain = 0
KFAS 122355Z 18005KT 30/08 A2998 RMK A01 T03000084  RH  026%=      5-min Rain = 0
KFAS 130000Z 18006KT 30/09 A2997 RMK A01 T02970086  RH  027%=      5-min Rain = 0
KFAS 130005Z 18006KT 29/09 A2997 RMK A01 T02930088  RH  028%=      5-min Rain = 0
KFAS 130010Z 18007KT 29/09 A2997 RMK A01 T02900088  RH  029%=      5-min Rain = 0
KFAS 130015Z 18007KT 29/09 A2998 RMK A01 T02870086  RH  029%=      5-min Rain = 0
KFAS 130020Z 18007KT 29/09 A2998 RMK A01 T02860087  RH  029%=      5-min Rain = 0
KFAS 130025Z 18007KT 28/09 A2998 RMK A01 T02820089  RH  030%=      5-min Rain = 0
KFAS 130030Z 18006KT 28/09 A2998 RMK A01 T02770088  RH  031%=      5-min Rain = 0
KFAS 130035Z 18007KT 27/09 A2998 RMK A01 T02720092  RH  033%=      5-min Rain = 0
KFAS 130040Z 17006KT 27/09 A2998 RMK A01 T02650094  RH  035%=      5-min Rain = 0
KFAS 130045Z 17007KT 26/09 A2998 RMK A01 T02600091  RH  035%=      5-min Rain = 0
KFAS 130050Z 16006KT 26/09 A2998 RMK A01 T02560092  RH  036%=      5-min Rain = 0
KFAS 130055Z 16006KT 25/09 A2998 RMK A01 T02510094  RH  037%=      5-min Rain = 0
KFAS 130100Z 16006KT 25/10 A2998 RMK A01 T02480098  RH  039%=      5-min Rain = 0
KFAS 130105Z 16006KT 24/10 A2998 RMK A01 T02440102  RH  041%=      5-min Rain = 0
KFAS 130110Z 17005KT 24/10 A2998 RMK A01 T02400103  RH  043%=      5-min Rain = 0
KFAS 130115Z 17006KT 24/10 A2998 RMK A01 T02380104  RH  044%=      5-min Rain = 0
KFAS 130120Z 16006KT 24/11 A2998 RMK A01 T02360105  RH  044%=      5-min Rain = 0
KFAS 130125Z 16006KT 23/11 A2998 RMK A01 T02330107  RH  046%=      5-min Rain = 0
KFAS 130130Z 17007KT 23/11 A2998 RMK A01 T02300109  RH  047%=      5-min Rain = 0
KFAS 130135Z 17007KT 23/11 A2998 RMK A01 T02270108  RH  048%=      5-min Rain = 0
KFAS 130140Z 17007KT 23/11 A2998 RMK A01 T02260106  RH  047%=      5-min Rain = 0
KFAS 130145Z 17007KT 23/11 A2998 RMK A01 T02250106  RH  048%=      5-min Rain = 0
KFAS 130150Z 17007KT 22/11 A2998 RMK A01 T02230107  RH  049%=      5-min Rain = 0
KFAS 130155Z 18007KT 22/10 A2998 RMK A01 T02210103  RH  048%=      5-min Rain = 0
KFAS 130200Z 18007KT 22/11 A2999 RMK A01 T02200106  RH  049%=      5-min Rain = 0
KFAS 130205Z 19006KT 21/11 A2999 RMK A01 T02120111  RH  053%=      5-min Rain = 0
KFAS 130210Z 19006KT 21/11 A2999 RMK A01 T02050110  RH  055%=      5-min Rain = 0
KFAS 130215Z 19006KT 20/11 A2999 RMK A01 T02030108  RH  056%=      5-min Rain = 0
KFAS 130220Z 19007KT 20/11 A2999 RMK A01 T02040108  RH  055%=      5-min Rain = 0
KFAS 130225Z 19007KT 21/11 A2999 RMK A01 T02070108  RH  054%=      5-min Rain = 0
KFAS 130230Z 20007KT 21/11 A2999 RMK A01 T02090106  RH  052%=      5-min Rain = 0
KFAS 130235Z 19005KT 21/10 A30 RMK A01 T02120104  RH  051%=      5-min Rain = 0
KFAS 130240Z 07005KT 22/10 A30 RMK A01 T02150104  RH  050%=      5-min Rain = 0
KFAS 130245Z 10005KT 23/10 A30 RMK A01 T02280096  RH  044%=      5-min Rain = 0
KFAS 130250Z 09004KT 23/09 A30 RMK A01 T02340093  RH  041%=      5-min Rain = 0
KFAS 130255Z 09004KT 24/09 A30 RMK A01 T02370092  RH  040%=      5-min Rain = 0
KFAS 130300Z 07007KT 23/10 A3001 RMK A01 T02340104  RH  044%=      5-min Rain = 0
KFAS 130305Z 08008KT 23/12 A3001 RMK A01 T02290115  RH  049%=      5-min Rain = 0
KFAS 130310Z 09007KT 23/12 A3001 RMK A01 T02270118  RH  051%=      5-min Rain = 0
KFAS 130315Z 11008KT 23/12 A3002 RMK A01 T02290116  RH  050%=      5-min Rain = 0
KFAS 130320Z 13007KT 23/12 A3002 RMK A01 T02280118  RH  050%=      5-min Rain = 0
KFAS 130325Z 14005KT 23/12 A3002 RMK A01 T02260118  RH  051%=      5-min Rain = 0
KFAS 130330Z 14005KT 22/12 A3003 RMK A01 T02230119  RH  053%=      5-min Rain = 0
KFAS 130335Z 13004KT 22/12 A3002 RMK A01 T02220118  RH  053%=      5-min Rain = 0
KFAS 130340Z 13002KT 22/12 A3003 RMK A01 T02220118  RH  053%=      5-min Rain = 0
KFAS 130345Z 16001KT 22/12 A3003 RMK A01 T02210120  RH  054%=      5-min Rain = 0
KFAS 130350Z 02001KT 22/12 A3003 RMK A01 T02190124  RH  056%=      5-min Rain = 0
KFAS 130355Z 36003KT 21/13 A3003 RMK A01 T02120134  RH  062%=      5-min Rain = 0
KFAS 130400Z 07003KT 21/13 A3003 RMK A01 T02090131  RH  062%=      5-min Rain = 0
KFAS 130405Z 15004KT 21/13 A3003 RMK A01 T02120127  RH  059%=      5-min Rain = 0
KFAS 130410Z 22005G12KT 22/13 A3004 RMK A01 T02150129  RH  059%=      5-min Rain = 0
KFAS 130415Z 31012KT 22/12 A3005 RMK A01 T02180124  RH  056%=      5-min Rain = 0
KFAS 130420Z 10006G11KT 23/12 A3004 RMK A01 T02310116  RH  049%=      5-min Rain = 0
KFAS 130425Z 15007KT 24/12 A3004 RMK A01 T02390115  RH  047%=      5-min Rain = 0
KFAS 130430Z 17006KT 24/12 A3004 RMK A01 T02380118  RH  048%=      5-min Rain = 0
KFAS 130435Z 14007KT 24/12 A3004 RMK A01 T02350118  RH  049%=      5-min Rain = 0
KFAS 130440Z 14004KT 23/12 A3004 RMK A01 T02330118  RH  049%=      5-min Rain = 0
KFAS 130445Z 15004KT 23/12 A3004 RMK A01 T02310118  RH  050%=      5-min Rain = 0
KFAS 130450Z 13006KT 23/12 A3004 RMK A01 T02290119  RH  051%=      5-min Rain = 0
KFAS 130455Z 14007KT 23/12 A3003 RMK A01 T02270119  RH  051%=      5-min Rain = 0

Page generated in 0.0192 seconds.